AirNav   Everest Fuels
 
 977 users online  

0AL5 Flomaton Airport
Flomaton, Alabama, USA

GOING TO FLOMATON?


FAA INFORMATION EFFECTIVE 03 JANUARY 2019

Location

FAA Identifier: 0AL5
Lat/Long: 31-01-56.0000N / 087-15-10.0000W
31-01.933333N / 087-15.166667W
31.0322222 / -87.2527778
(estimated)
Elevation: 247 ft. / 75 m (estimated)
Variation: 00E (1990)
From city: 2 miles NE of FLOMATON, AL
Time zone: UTC -6 (UTC -5 during Daylight Saving Time)
Zip code: 36441

Airport Operations

Airport use: Private use. Permission required prior to landing
Activation date: 03/1993
Control tower: no
ARTCC: JACKSONVILLE CENTER
FSS: ANNISTON FLIGHT SERVICE STATION
Attendance: UNATNDD
Segmented circle: no

Airport Communications

WX AWOS-3PT at 12J (10 nm E): 119.325 (251-809-2987)

Nearby radio navigation aids

VOR radial/distance  VOR name  Freq  Var
MVCr165/26.1MONROEVILLE VORTAC116.8004E
CEWr290/32.0CRESTVIEW VORTAC115.9003E
NUNr006/(33.9)SAUFLEY VOR108.8001E

 
NDB name  Hdg/Dist  Freq  Var  ID
PICKENS356/35.932602WPKZ .--. -.- --..

Airport Services

Runway Information

Runway 15/33

Dimensions: 2200 x 100 ft. / 671 x 30 m
Surface: turf
RUNWAY 15  RUNWAY 33
Traffic pattern: leftleft
Obstructions: none144 ft. tower, 2300 ft. from runway

Airport Ownership and Management from official FAA records

Ownership: Privately-owned
Owner: ALLEN HENDERSON
P.O. BOX 301
FLOMATON, AL 36441
Phone (251) 513-9533
Manager: ALLEN HENDERSON
P.O. BOX 301
FLOMATON, AL 36441
Phone (251) 513-9533

Airport Operational Statistics

Aircraft based on the field: 3
Single engine airplanes: 3
    

Instrument Procedures

There are no published instrument procedures at 0AL5.

Some nearby airports with instrument procedures:

12J - Brewton Municipal Airport (10 nm E)
0R1 - Atmore Municipal Airport (10 nm W)
KNSE - Whiting Field Naval Air Station North (22 nm SE)
KNDZ - Whiting Field Naval Air Station South (23 nm SE)
KGZH - Evergreen Regional Airport/Middleton Field (25 nm NE)
 
Loc | Ops | Rwys | IFR | FBO | Links
Com | Nav | Svcs | Stats | Notes
Area around 0AL5 (Flomaton Airport)
 
Road maps at: MapQuest Bing Google
 
Aerial photo
No photo
 
Sectional chart

 
Airport distance calculator
Flying to Flomaton Airport? Find the distance to fly.

From to 0AL5

Sunrise and sunset
Times for 21-Jan-2019
 Local
(UTC-6)
 Zulu
(UTC)
Morning civil twilight06:2112:21
Sunrise06:4712:47
Sunset17:1323:13
Evening civil twilight17:3923:39

Current date and time
Zulu (UTC)  22-Jan-2019 01:30:18
Local (UTC-6)  21-Jan-2019 19:30:18
 
METAR
KNDZ 
23nm SE 
220056Z AUTO 06005KT 10SM CLR 07/M01 A3035 RMK AO2 SLP265 T00721011 $
KGZH 
25nm NE 
220053Z AUTO 00000KT 10SM CLR 05/M01 A3035 RMK AO2 SLP277 T00501006
2R4 
27nm SE 
SuperAWOS
220055Z AUTO 00000KT 07/01 A3033
KPNS 
33nm S 
220053Z 04004KT 10SM CLR 09/00 A3033 RMK AO2 SLP274 T00940000
KNPA 
41nm S 
220056Z AUTO 00000KT 10SM CLR 05/03 A3033 RMK AO2 SLP272 T00500028 $
KCEW 
41nm SE 
220053Z AUTO 00000KT 10SM CLR 03/01 A3036 RMK AO2 SLP283 T00330006
KEGI 
45nm SE 
220056Z AUTO 00000KT 10SM CLR 04/00 A3034 RMK AO2 SLP277 T00360003 $
TAF
KNSE 
23nm SE 
2123/2223 VRB06KT 9999 SKC QNH3031INS BECMG 2208/2210 11013KT SCT010 BKN020 OVC035 QNH3030INS BECMG 2212/2214 11015KT 6000 BR SCT005 BKN010 OVC018 QNH3024INS BECMG 2218/2220 12015KT 9999 NSW SCT010 BKN025 OVC045 QNH3020INS AUTOMATED SENSOR METWATCH 2123 TIL 2212 T05/2203Z T18/2221Z FN00197
NOTAMs
Click for the latest NOTAMs
NOTAMs are issued by the DoD/FAA and will open in a separate window not controlled by AirNav.

 

 
 

Would you like to see your business listed on this page?

 If your business provides an interesting product or service to pilots, flight crews, aircraft, or users of the Flomaton Airport, you should consider listing it here.  To start the listing process, click on the button below
 
Add a business
 

Other Pages about Flomaton Airport

Update a link
 
Copyright © AirNav, LLC. All rights reserved. Privacy Policy  Contact